sensor_id;sensor_type;location;lat;lon;timestamp;temperature;humidity
7427;DHT22;3755;59.316;18.092;2023-06-22T00:00:50;18.60;99.90
7427;DHT22;3755;59.316;18.092;2023-06-22T00:03:18;18.60;99.90
7427;DHT22;3755;59.316;18.092;2023-06-22T00:05:45;18.70;99.90
7427;DHT22;3755;59.316;18.092;2023-06-22T00:08:13;18.60;99.90
7427;DHT22;3755;59.316;18.092;2023-06-22T00:10:40;18.70;99.90
7427;DHT22;3755;59.316;18.092;2023-06-22T00:13:08;18.70;99.90
7427;DHT22;3755;59.316;18.092;2023-06-22T00:15:38;18.70;99.90
7427;DHT22;3755;59.316;18.092;2023-06-22T00:18:06;18.70;99.90
7427;DHT22;3755;59.316;18.092;2023-06-22T00:20:34;18.80;99.90
7427;DHT22;3755;59.316;18.092;2023-06-22T00:23:03;18.80;99.90
7427;DHT22;3755;59.316;18.092;2023-06-22T00:25:34;18.90;99.90
7427;DHT22;3755;59.316;18.092;2023-06-22T00:28:01;18.90;99.90
7427;DHT22;3755;59.316;18.092;2023-06-22T00:30:30;18.90;99.90
7427;DHT22;3755;59.316;18.092;2023-06-22T00:33:00;18.80;99.90
7427;DHT22;3755;59.316;18.092;2023-06-22T00:35:27;18.80;99.90
7427;DHT22;3755;59.316;18.092;2023-06-22T00:37:56;18.80;99.90
7427;DHT22;3755;59.316;18.092;2023-06-22T00:40:28;18.70;99.90
7427;DHT22;3755;59.316;18.092;2023-06-22T00:42:55;18.70;99.90
7427;DHT22;3755;59.316;18.092;2023-06-22T00:45:22;18.70;99.90
7427;DHT22;3755;59.316;18.092;2023-06-22T00:47:51;18.60;99.90
7427;DHT22;3755;59.316;18.092;2023-06-22T00:50:21;18.60;99.90
7427;DHT22;3755;59.316;18.092;2023-06-22T00:52:51;18.60;99.90
7427;DHT22;3755;59.316;18.092;2023-06-22T00:55:19;18.70;99.90
7427;DHT22;3755;59.316;18.092;2023-06-22T00:57:47;18.70;99.90
7427;DHT22;3755;59.316;18.092;2023-06-22T01:00:15;18.70;99.90
7427;DHT22;3755;59.316;18.092;2023-06-22T01:02:44;18.70;99.90
7427;DHT22;3755;59.316;18.092;2023-06-22T01:05:13;18.70;99.90
7427;DHT22;3755;59.316;18.092;2023-06-22T01:07:46;18.70;99.90
7427;DHT22;3755;59.316;18.092;2023-06-22T01:10:24;18.80;99.90
7427;DHT22;3755;59.316;18.092;2023-06-22T01:12:55;18.80;99.90
7427;DHT22;3755;59.316;18.092;2023-06-22T01:15:29;18.90;99.90
7427;DHT22;3755;59.316;18.092;2023-06-22T01:17:59;18.90;99.90
7427;DHT22;3755;59.316;18.092;2023-06-22T01:20:30;18.90;99.90
7427;DHT22;3755;59.316;18.092;2023-06-22T01:23:09;18.90;99.90
7427;DHT22;3755;59.316;18.092;2023-06-22T01:25:45;18.90;99.90
7427;DHT22;3755;59.316;18.092;2023-06-22T01:28:24;18.90;99.90
7427;DHT22;3755;59.316;18.092;2023-06-22T01:30:54;18.80;99.90
7427;DHT22;3755;59.316;18.092;2023-06-22T01:33:30;18.70;99.90
7427;DHT22;3755;59.316;18.092;2023-06-22T01:35:59;18.90;99.90
7427;DHT22;3755;59.316;18.092;2023-06-22T01:38:28;18.90;99.90
7427;DHT22;3755;59.316;18.092;2023-06-22T01:40:57;18.80;99.90
7427;DHT22;3755;59.316;18.092;2023-06-22T01:43:26;18.80;99.90
7427;DHT22;3755;59.316;18.092;2023-06-22T01:45:56;18.90;99.90
7427;DHT22;3755;59.316;18.092;2023-06-22T01:48:23;18.90;99.90
7427;DHT22;3755;59.316;18.092;2023-06-22T01:50:52;18.90;99.90
7427;DHT22;3755;59.316;18.092;2023-06-22T01:53:21;18.90;99.90
7427;DHT22;3755;59.316;18.092;2023-06-22T01:55:48;18.90;99.90
7427;DHT22;3755;59.316;18.092;2023-06-22T01:58:16;19.00;99.90
7427;DHT22;3755;59.316;18.092;2023-06-22T02:00:46;19.00;99.90
7427;DHT22;3755;59.316;18.092;2023-06-22T02:03:19;19.00;99.90
7427;DHT22;3755;59.316;18.092;2023-06-22T02:05:51;19.00;99.90
7427;DHT22;3755;59.316;18.092;2023-06-22T02:08:21;19.10;99.90
7427;DHT22;3755;59.316;18.092;2023-06-22T02:10:51;19.00;99.90
7427;DHT22;3755;59.316;18.092;2023-06-22T02:13:18;19.10;99.90
7427;DHT22;3755;59.316;18.092;2023-06-22T02:15:46;19.10;99.90
7427;DHT22;3755;59.316;18.092;2023-06-22T02:18:14;19.10;99.90
7427;DHT22;3755;59.316;18.092;2023-06-22T02:20:43;19.10;99.90
7427;DHT22;3755;59.316;18.092;2023-06-22T02:23:10;19.10;99.90
7427;DHT22;3755;59.316;18.092;2023-06-22T02:25:37;19.10;99.90
7427;DHT22;3755;59.316;18.092;2023-06-22T02:28:05;19.10;99.90
7427;DHT22;3755;59.316;18.092;2023-06-22T02:30:32;19.10;99.90
7427;DHT22;3755;59.316;18.092;2023-06-22T02:32:59;19.10;99.90
7427;DHT22;3755;59.316;18.092;2023-06-22T02:35:27;19.10;99.90
7427;DHT22;3755;59.316;18.092;2023-06-22T02:37:58;19.10;99.90
7427;DHT22;3755;59.316;18.092;2023-06-22T02:40:25;19.00;99.90
7427;DHT22;3755;59.316;18.092;2023-06-22T02:42:53;19.00;99.90
7427;DHT22;3755;59.316;18.092;2023-06-22T02:45:20;19.00;99.90
7427;DHT22;3755;59.316;18.092;2023-06-22T02:47:47;19.00;99.90
7427;DHT22;3755;59.316;18.092;2023-06-22T02:50:14;19.10;99.90
7427;DHT22;3755;59.316;18.092;2023-06-22T02:52:42;19.10;99.90
7427;DHT22;3755;59.316;18.092;2023-06-22T02:55:10;19.10;99.90
7427;DHT22;3755;59.316;18.092;2023-06-22T02:57:37;19.10;99.90
7427;DHT22;3755;59.316;18.092;2023-06-22T03:00:12;19.00;99.90
7427;DHT22;3755;59.316;18.092;2023-06-22T03:02:43;19.00;99.90
7427;DHT22;3755;59.316;18.092;2023-06-22T03:05:10;19.00;99.90
7427;DHT22;3755;59.316;18.092;2023-06-22T03:07:40;19.10;99.90
7427;DHT22;3755;59.316;18.092;2023-06-22T03:10:10;19.10;99.90
7427;DHT22;3755;59.316;18.092;2023-06-22T03:12:37;19.10;99.90
7427;DHT22;3755;59.316;18.092;2023-06-22T03:15:06;19.10;99.90
7427;DHT22;3755;59.316;18.092;2023-06-22T03:17:34;19.10;99.90
7427;DHT22;3755;59.316;18.092;2023-06-22T03:20:02;19.10;99.90
7427;DHT22;3755;59.316;18.092;2023-06-22T03:22:34;19.10;99.90
7427;DHT22;3755;59.316;18.092;2023-06-22T03:25:01;19.20;99.90
7427;DHT22;3755;59.316;18.092;2023-06-22T03:27:30;19.20;99.90
7427;DHT22;3755;59.316;18.092;2023-06-22T03:29:57;19.20;99.90
7427;DHT22;3755;59.316;18.092;2023-06-22T03:32:24;19.20;99.90
7427;DHT22;3755;59.316;18.092;2023-06-22T03:34:53;19.20;99.90
7427;DHT22;3755;59.316;18.092;2023-06-22T03:37:24;19.30;99.90
7427;DHT22;3755;59.316;18.092;2023-06-22T03:39:51;19.30;99.90
7427;DHT22;3755;59.316;18.092;2023-06-22T03:42:18;19.30;99.90
7427;DHT22;3755;59.316;18.092;2023-06-22T03:44:47;19.30;99.90
7427;DHT22;3755;59.316;18.092;2023-06-22T03:47:14;19.30;99.90
7427;DHT22;3755;59.316;18.092;2023-06-22T03:49:41;19.40;99.90
7427;DHT22;3755;59.316;18.092;2023-06-22T03:52:08;19.40;99.90
7427;DHT22;3755;59.316;18.092;2023-06-22T03:54:36;19.40;99.90
7427;DHT22;3755;59.316;18.092;2023-06-22T03:57:04;19.40;99.90
7427;DHT22;3755;59.316;18.092;2023-06-22T03:59:31;19.30;99.90
7427;DHT22;3755;59.316;18.092;2023-06-22T04:02:01;19.30;99.90
7427;DHT22;3755;59.316;18.092;2023-06-22T04:04:28;19.30;99.90
7427;DHT22;3755;59.316;18.092;2023-06-22T04:06:55;19.30;99.90
7427;DHT22;3755;59.316;18.092;2023-06-22T04:09:23;19.30;99.90
7427;DHT22;3755;59.316;18.092;2023-06-22T04:11:51;19.30;99.90
7427;DHT22;3755;59.316;18.092;2023-06-22T04:14:18;19.30;99.90
7427;DHT22;3755;59.316;18.092;2023-06-22T04:16:45;19.40;99.90
7427;DHT22;3755;59.316;18.092;2023-06-22T04:19:13;19.40;99.90
7427;DHT22;3755;59.316;18.092;2023-06-22T04:21:42;19.40;99.90
7427;DHT22;3755;59.316;18.092;2023-06-22T04:24:10;19.40;99.90
7427;DHT22;3755;59.316;18.092;2023-06-22T04:26:37;19.30;99.90
7427;DHT22;3755;59.316;18.092;2023-06-22T04:29:07;19.50;99.90
7427;DHT22;3755;59.316;18.092;2023-06-22T04:31:35;19.80;99.90
7427;DHT22;3755;59.316;18.092;2023-06-22T04:34:03;20.20;99.90
7427;DHT22;3755;59.316;18.092;2023-06-22T04:36:35;20.70;99.90
7427;DHT22;3755;59.316;18.092;2023-06-22T04:39:04;20.80;99.90
7427;DHT22;3755;59.316;18.092;2023-06-22T04:41:32;21.00;99.90
7427;DHT22;3755;59.316;18.092;2023-06-22T04:44:09;21.00;99.90
7427;DHT22;3755;59.316;18.092;2023-06-22T04:46:36;20.70;99.90
7427;DHT22;3755;59.316;18.092;2023-06-22T04:49:05;20.50;99.90
7427;DHT22;3755;59.316;18.092;2023-06-22T04:51:40;20.40;99.90
7427;DHT22;3755;59.316;18.092;2023-06-22T04:54:09;20.40;99.90
7427;DHT22;3755;59.316;18.092;2023-06-22T04:56:36;20.60;99.90
7427;DHT22;3755;59.316;18.092;2023-06-22T04:59:06;20.60;99.90
7427;DHT22;3755;59.316;18.092;2023-06-22T05:01:34;20.50;99.90
7427;DHT22;3755;59.316;18.092;2023-06-22T05:04:01;20.80;99.90
7427;DHT22;3755;59.316;18.092;2023-06-22T05:06:30;21.00;99.90
7427;DHT22;3755;59.316;18.092;2023-06-22T05:08:59;21.00;99.90
7427;DHT22;3755;59.316;18.092;2023-06-22T05:11:27;21.00;99.90
7427;DHT22;3755;59.316;18.092;2023-06-22T05:13:54;20.90;99.90
7427;DHT22;3755;59.316;18.092;2023-06-22T05:16:22;20.90;99.90
7427;DHT22;3755;59.316;18.092;2023-06-22T05:18:52;20.90;99.90
7427;DHT22;3755;59.316;18.092;2023-06-22T05:21:22;20.80;99.90
7427;DHT22;3755;59.316;18.092;2023-06-22T05:23:50;20.90;99.90
7427;DHT22;3755;59.316;18.092;2023-06-22T05:26:19;21.00;99.90
7427;DHT22;3755;59.316;18.092;2023-06-22T05:28:47;20.90;99.90
7427;DHT22;3755;59.316;18.092;2023-06-22T05:31:14;20.80;99.90
7427;DHT22;3755;59.316;18.092;2023-06-22T05:33:42;21.10;99.90
7427;DHT22;3755;59.316;18.092;2023-06-22T05:36:10;21.10;99.90
7427;DHT22;3755;59.316;18.092;2023-06-22T05:38:38;20.90;99.90
7427;DHT22;3755;59.316;18.092;2023-06-22T05:41:06;20.70;99.90
7427;DHT22;3755;59.316;18.092;2023-06-22T05:43:34;20.50;99.90
7427;DHT22;3755;59.316;18.092;2023-06-22T05:46:02;20.40;99.90
7427;DHT22;3755;59.316;18.092;2023-06-22T05:48:29;20.30;99.90
7427;DHT22;3755;59.316;18.092;2023-06-22T05:50:56;20.20;99.90
7427;DHT22;3755;59.316;18.092;2023-06-22T05:53:23;20.20;99.90
7427;DHT22;3755;59.316;18.092;2023-06-22T05:55:51;20.10;99.90
7427;DHT22;3755;59.316;18.092;2023-06-22T05:58:18;20.10;99.90
7427;DHT22;3755;59.316;18.092;2023-06-22T06:00:46;20.10;99.90
7427;DHT22;3755;59.316;18.092;2023-06-22T06:03:13;20.00;99.90
7427;DHT22;3755;59.316;18.092;2023-06-22T06:05:43;19.80;99.90
7427;DHT22;3755;59.316;18.092;2023-06-22T06:08:10;19.80;99.90
7427;DHT22;3755;59.316;18.092;2023-06-22T06:10:38;19.70;99.90
7427;DHT22;3755;59.316;18.092;2023-06-22T06:13:05;19.70;99.90
7427;DHT22;3755;59.316;18.092;2023-06-22T06:15:34;19.70;99.90
7427;DHT22;3755;59.316;18.092;2023-06-22T06:18:03;19.70;99.90
7427;DHT22;3755;59.316;18.092;2023-06-22T06:20:31;19.70;99.90
7427;DHT22;3755;59.316;18.092;2023-06-22T06:22:59;19.80;99.90
7427;DHT22;3755;59.316;18.092;2023-06-22T06:25:26;19.90;99.90
7427;DHT22;3755;59.316;18.092;2023-06-22T06:27:53;19.90;99.90
7427;DHT22;3755;59.316;18.092;2023-06-22T06:30:22;20.00;99.90
7427;DHT22;3755;59.316;18.092;2023-06-22T06:32:49;20.10;99.90
7427;DHT22;3755;59.316;18.092;2023-06-22T06:35:18;20.00;99.90
7427;DHT22;3755;59.316;18.092;2023-06-22T06:37:48;20.00;99.90
7427;DHT22;3755;59.316;18.092;2023-06-22T06:40:17;20.00;99.90
7427;DHT22;3755;59.316;18.092;2023-06-22T06:42:46;19.90;99.90
7427;DHT22;3755;59.316;18.092;2023-06-22T06:45:16;20.00;99.90
7427;DHT22;3755;59.316;18.092;2023-06-22T06:47:43;20.30;99.90
7427;DHT22;3755;59.316;18.092;2023-06-22T06:50:11;20.50;99.90
7427;DHT22;3755;59.316;18.092;2023-06-22T06:52:40;20.30;99.90
7427;DHT22;3755;59.316;18.092;2023-06-22T06:55:08;20.10;99.90
7427;DHT22;3755;59.316;18.092;2023-06-22T06:57:38;20.10;99.90
7427;DHT22;3755;59.316;18.092;2023-06-22T07:00:06;20.20;99.90
7427;DHT22;3755;59.316;18.092;2023-06-22T07:02:38;20.40;99.90
7427;DHT22;3755;59.316;18.092;2023-06-22T07:05:06;20.60;99.90
7427;DHT22;3755;59.316;18.092;2023-06-22T07:07:33;20.90;99.90
7427;DHT22;3755;59.316;18.092;2023-06-22T07:10:03;20.80;99.90
7427;DHT22;3755;59.316;18.092;2023-06-22T07:12:31;20.70;99.90
7427;DHT22;3755;59.316;18.092;2023-06-22T07:15:02;20.80;99.90
7427;DHT22;3755;59.316;18.092;2023-06-22T07:17:29;21.00;99.90
7427;DHT22;3755;59.316;18.092;2023-06-22T07:19:56;21.10;99.90
7427;DHT22;3755;59.316;18.092;2023-06-22T07:22:23;21.10;99.90
7427;DHT22;3755;59.316;18.092;2023-06-22T07:24:51;21.10;99.90
7427;DHT22;3755;59.316;18.092;2023-06-22T07:27:19;20.90;99.90
7427;DHT22;3755;59.316;18.092;2023-06-22T07:29:47;20.70;99.90
7427;DHT22;3755;59.316;18.092;2023-06-22T07:32:14;20.80;99.90
7427;DHT22;3755;59.316;18.092;2023-06-22T07:34:41;20.90;99.90
7427;DHT22;3755;59.316;18.092;2023-06-22T07:37:09;20.90;99.90
7427;DHT22;3755;59.316;18.092;2023-06-22T07:39:36;20.80;99.90
7427;DHT22;3755;59.316;18.092;2023-06-22T07:42:04;20.70;99.90
7427;DHT22;3755;59.316;18.092;2023-06-22T07:44:33;20.70;99.90
7427;DHT22;3755;59.316;18.092;2023-06-22T07:47:00;20.50;99.90
7427;DHT22;3755;59.316;18.092;2023-06-22T07:49:28;20.40;99.90
7427;DHT22;3755;59.316;18.092;2023-06-22T07:51:55;20.40;99.90
7427;DHT22;3755;59.316;18.092;2023-06-22T07:54:22;20.30;99.90
7427;DHT22;3755;59.316;18.092;2023-06-22T07:56:49;20.10;99.90
7427;DHT22;3755;59.316;18.092;2023-06-22T07:59:16;20.20;99.90
7427;DHT22;3755;59.316;18.092;2023-06-22T08:01:45;20.30;99.90
7427;DHT22;3755;59.316;18.092;2023-06-22T08:04:14;20.60;99.90
7427;DHT22;3755;59.316;18.092;2023-06-22T08:06:42;20.70;99.90
7427;DHT22;3755;59.316;18.092;2023-06-22T08:09:09;20.70;99.90
7427;DHT22;3755;59.316;18.092;2023-06-22T08:11:36;20.90;99.90
7427;DHT22;3755;59.316;18.092;2023-06-22T08:14:03;20.90;99.90
7427;DHT22;3755;59.316;18.092;2023-06-22T08:16:31;20.90;99.90
7427;DHT22;3755;59.316;18.092;2023-06-22T08:18:59;20.80;99.90
7427;DHT22;3755;59.316;18.092;2023-06-22T08:21:26;21.10;99.90
7427;DHT22;3755;59.316;18.092;2023-06-22T08:23:53;21.30;99.90
7427;DHT22;3755;59.316;18.092;2023-06-22T08:26:21;21.70;99.90
7427;DHT22;3755;59.316;18.092;2023-06-22T08:28:49;21.70;99.90
7427;DHT22;3755;59.316;18.092;2023-06-22T08:31:16;21.50;99.90
7427;DHT22;3755;59.316;18.092;2023-06-22T08:33:43;21.70;99.90
7427;DHT22;3755;59.316;18.092;2023-06-22T08:36:13;21.80;99.90
7427;DHT22;3755;59.316;18.092;2023-06-22T08:38:42;21.80;99.90
7427;DHT22;3755;59.316;18.092;2023-06-22T08:41:10;21.80;99.90
7427;DHT22;3755;59.316;18.092;2023-06-22T08:43:37;21.60;99.90
7427;DHT22;3755;59.316;18.092;2023-06-22T08:46:05;21.90;99.90
7427;DHT22;3755;59.316;18.092;2023-06-22T08:48:32;22.10;99.90
7427;DHT22;3755;59.316;18.092;2023-06-22T08:50:59;22.00;99.90
7427;DHT22;3755;59.316;18.092;2023-06-22T08:53:27;21.90;99.90
7427;DHT22;3755;59.316;18.092;2023-06-22T08:55:54;21.90;99.90
7427;DHT22;3755;59.316;18.092;2023-06-22T08:58:22;22.20;99.90
7427;DHT22;3755;59.316;18.092;2023-06-22T09:00:50;22.20;99.90
7427;DHT22;3755;59.316;18.092;2023-06-22T09:03:17;22.10;99.90
7427;DHT22;3755;59.316;18.092;2023-06-22T09:05:46;22.10;99.90
7427;DHT22;3755;59.316;18.092;2023-06-22T09:08:13;22.40;99.90
7427;DHT22;3755;59.316;18.092;2023-06-22T09:10:42;22.70;99.90
7427;DHT22;3755;59.316;18.092;2023-06-22T09:13:09;22.60;99.90
7427;DHT22;3755;59.316;18.092;2023-06-22T09:15:37;22.70;99.90
7427;DHT22;3755;59.316;18.092;2023-06-22T09:18:04;22.70;99.90
7427;DHT22;3755;59.316;18.092;2023-06-22T09:20:32;22.60;99.90
7427;DHT22;3755;59.316;18.092;2023-06-22T09:22:59;22.70;99.90
7427;DHT22;3755;59.316;18.092;2023-06-22T09:25:27;22.60;99.90
7427;DHT22;3755;59.316;18.092;2023-06-22T09:27:55;22.60;99.90
7427;DHT22;3755;59.316;18.092;2023-06-22T09:30:23;22.40;99.90
7427;DHT22;3755;59.316;18.092;2023-06-22T09:32:50;22.30;99.90
7427;DHT22;3755;59.316;18.092;2023-06-22T09:35:18;22.30;99.90
7427;DHT22;3755;59.316;18.092;2023-06-22T09:37:45;22.10;99.90
7427;DHT22;3755;59.316;18.092;2023-06-22T09:40:13;22.30;99.90
7427;DHT22;3755;59.316;18.092;2023-06-22T09:42:42;22.60;99.90
7427;DHT22;3755;59.316;18.092;2023-06-22T09:45:11;22.60;99.90
7427;DHT22;3755;59.316;18.092;2023-06-22T09:47:38;22.70;99.90
7427;DHT22;3755;59.316;18.092;2023-06-22T09:50:06;23.00;99.90
7427;DHT22;3755;59.316;18.092;2023-06-22T09:52:34;22.90;99.90
7427;DHT22;3755;59.316;18.092;2023-06-22T09:55:02;22.90;99.90
7427;DHT22;3755;59.316;18.092;2023-06-22T09:57:30;22.80;99.90
7427;DHT22;3755;59.316;18.092;2023-06-22T09:59:57;22.70;99.90
7427;DHT22;3755;59.316;18.092;2023-06-22T10:02:26;22.80;99.90
7427;DHT22;3755;59.316;18.092;2023-06-22T10:04:53;22.60;99.90
7427;DHT22;3755;59.316;18.092;2023-06-22T10:07:20;22.70;99.90
7427;DHT22;3755;59.316;18.092;2023-06-22T10:09:47;22.90;99.90
7427;DHT22;3755;59.316;18.092;2023-06-22T10:12:14;22.50;99.90
7427;DHT22;3755;59.316;18.092;2023-06-22T10:14:41;22.60;99.90
7427;DHT22;3755;59.316;18.092;2023-06-22T10:17:08;22.60;99.90
7427;DHT22;3755;59.316;18.092;2023-06-22T10:19:37;22.70;99.90
7427;DHT22;3755;59.316;18.092;2023-06-22T10:22:05;22.80;99.90
7427;DHT22;3755;59.316;18.092;2023-06-22T10:24:32;22.90;99.90
7427;DHT22;3755;59.316;18.092;2023-06-22T10:26:59;23.00;99.90
7427;DHT22;3755;59.316;18.092;2023-06-22T10:29:26;22.80;99.90
7427;DHT22;3755;59.316;18.092;2023-06-22T10:31:53;22.70;99.90
7427;DHT22;3755;59.316;18.092;2023-06-22T10:34:20;23.00;99.90
7427;DHT22;3755;59.316;18.092;2023-06-22T10:36:49;23.30;99.90
7427;DHT22;3755;59.316;18.092;2023-06-22T10:39:16;23.40;99.90
7427;DHT22;3755;59.316;18.092;2023-06-22T10:41:43;23.40;99.90
7427;DHT22;3755;59.316;18.092;2023-06-22T10:44:10;23.30;99.90
7427;DHT22;3755;59.316;18.092;2023-06-22T10:46:38;23.50;99.90
7427;DHT22;3755;59.316;18.092;2023-06-22T10:49:05;23.70;99.90
7427;DHT22;3755;59.316;18.092;2023-06-22T10:51:32;23.50;99.70
7427;DHT22;3755;59.316;18.092;2023-06-22T10:54:01;23.50;99.90
7427;DHT22;3755;59.316;18.092;2023-06-22T10:56:29;23.40;99.90
7427;DHT22;3755;59.316;18.092;2023-06-22T10:58:59;23.30;99.90
7427;DHT22;3755;59.316;18.092;2023-06-22T11:01:27;23.40;99.90
7427;DHT22;3755;59.316;18.092;2023-06-22T11:03:56;23.60;99.90
7427;DHT22;3755;59.316;18.092;2023-06-22T11:06:24;23.90;99.70
7427;DHT22;3755;59.316;18.092;2023-06-22T11:08:51;24.00;99.30
7427;DHT22;3755;59.316;18.092;2023-06-22T11:11:21;24.00;99.20
7427;DHT22;3755;59.316;18.092;2023-06-22T11:13:48;23.90;99.10
7427;DHT22;3755;59.316;18.092;2023-06-22T11:16:15;23.90;99.10
7427;DHT22;3755;59.316;18.092;2023-06-22T11:18:42;24.10;99.00
7427;DHT22;3755;59.316;18.092;2023-06-22T11:21:10;24.30;98.10
7427;DHT22;3755;59.316;18.092;2023-06-22T11:23:37;24.30;98.10
7427;DHT22;3755;59.316;18.092;2023-06-22T11:26:04;24.10;98.20
7427;DHT22;3755;59.316;18.092;2023-06-22T11:28:32;24.00;98.50
7427;DHT22;3755;59.316;18.092;2023-06-22T11:31:00;24.20;98.50
7427;DHT22;3755;59.316;18.092;2023-06-22T11:33:27;24.30;97.90
7427;DHT22;3755;59.316;18.092;2023-06-22T11:35:54;24.60;97.80
7427;DHT22;3755;59.316;18.092;2023-06-22T11:38:22;24.60;97.60
7427;DHT22;3755;59.316;18.092;2023-06-22T11:40:50;24.70;97.40
7427;DHT22;3755;59.316;18.092;2023-06-22T11:43:17;24.90;97.20
7427;DHT22;3755;59.316;18.092;2023-06-22T11:45:45;24.90;96.90
7427;DHT22;3755;59.316;18.092;2023-06-22T11:48:13;24.90;96.90
7427;DHT22;3755;59.316;18.092;2023-06-22T11:50:40;24.90;96.70
7427;DHT22;3755;59.316;18.092;2023-06-22T11:53:07;24.70;96.40
7427;DHT22;3755;59.316;18.092;2023-06-22T11:55:35;24.90;96.60
7427;DHT22;3755;59.316;18.092;2023-06-22T11:58:02;24.70;96.20
7427;DHT22;3755;59.316;18.092;2023-06-22T12:00:31;24.50;96.60
7427;DHT22;3755;59.316;18.092;2023-06-22T12:02:59;24.50;96.90
7427;DHT22;3755;59.316;18.092;2023-06-22T12:05:26;24.60;97.20
7427;DHT22;3755;59.316;18.092;2023-06-22T12:07:54;24.60;97.30
7427;DHT22;3755;59.316;18.092;2023-06-22T12:10:21;24.60;96.10
7427;DHT22;3755;59.316;18.092;2023-06-22T12:12:48;24.40;96.70
7427;DHT22;3755;59.316;18.092;2023-06-22T12:15:16;24.30;96.80
7427;DHT22;3755;59.316;18.092;2023-06-22T12:17:43;24.30;97.10
7427;DHT22;3755;59.316;18.092;2023-06-22T12:20:11;24.50;97.10
7427;DHT22;3755;59.316;18.092;2023-06-22T12:22:39;24.40;97.10
7427;DHT22;3755;59.316;18.092;2023-06-22T12:25:07;24.60;97.00
7427;DHT22;3755;59.316;18.092;2023-06-22T12:27:34;24.90;96.60
7427;DHT22;3755;59.316;18.092;2023-06-22T12:30:02;25.00;96.20
7427;DHT22;3755;59.316;18.092;2023-06-22T12:32:29;25.10;96.70
7427;DHT22;3755;59.316;18.092;2023-06-22T12:34:57;25.00;96.50
7427;DHT22;3755;59.316;18.092;2023-06-22T12:37:26;24.80;96.50
7427;DHT22;3755;59.316;18.092;2023-06-22T12:39:55;24.90;96.60
7427;DHT22;3755;59.316;18.092;2023-06-22T12:42:22;24.90;96.60
7427;DHT22;3755;59.316;18.092;2023-06-22T12:44:50;24.60;97.00
7427;DHT22;3755;59.316;18.092;2023-06-22T12:47:17;24.50;97.00
7427;DHT22;3755;59.316;18.092;2023-06-22T12:49:45;24.50;97.30
7427;DHT22;3755;59.316;18.092;2023-06-22T12:52:13;24.90;97.10
7427;DHT22;3755;59.316;18.092;2023-06-22T12:54:42;24.60;96.90
7427;DHT22;3755;59.316;18.092;2023-06-22T12:57:09;24.60;97.10
7427;DHT22;3755;59.316;18.092;2023-06-22T12:59:36;24.80;97.00
7427;DHT22;3755;59.316;18.092;2023-06-22T13:02:04;25.00;97.00
7427;DHT22;3755;59.316;18.092;2023-06-22T13:04:33;25.20;96.80
7427;DHT22;3755;59.316;18.092;2023-06-22T13:07:00;25.30;96.40
7427;DHT22;3755;59.316;18.092;2023-06-22T13:09:28;24.90;96.70
7427;DHT22;3755;59.316;18.092;2023-06-22T13:11:56;24.70;97.00
7427;DHT22;3755;59.316;18.092;2023-06-22T13:14:24;24.80;97.10
7427;DHT22;3755;59.316;18.092;2023-06-22T13:16:51;24.90;96.80
7427;DHT22;3755;59.316;18.092;2023-06-22T13:19:18;25.00;97.00
7427;DHT22;3755;59.316;18.092;2023-06-22T13:21:46;24.80;97.10
7427;DHT22;3755;59.316;18.092;2023-06-22T13:24:13;24.60;97.40
7427;DHT22;3755;59.316;18.092;2023-06-22T13:26:40;25.00;97.50
7427;DHT22;3755;59.316;18.092;2023-06-22T13:29:09;25.20;97.30
7427;DHT22;3755;59.316;18.092;2023-06-22T13:31:37;25.10;97.30
7427;DHT22;3755;59.316;18.092;2023-06-22T13:34:04;25.20;97.10
7427;DHT22;3755;59.316;18.092;2023-06-22T13:36:32;25.20;97.00
7427;DHT22;3755;59.316;18.092;2023-06-22T13:38:59;25.20;97.00
7427;DHT22;3755;59.316;18.092;2023-06-22T13:41:26;25.10;97.30
7427;DHT22;3755;59.316;18.092;2023-06-22T13:43:54;25.10;97.10
7427;DHT22;3755;59.316;18.092;2023-06-22T13:46:22;25.00;97.20
7427;DHT22;3755;59.316;18.092;2023-06-22T13:48:49;25.10;97.10
7427;DHT22;3755;59.316;18.092;2023-06-22T13:51:17;25.20;97.10
7427;DHT22;3755;59.316;18.092;2023-06-22T13:53:44;25.60;96.90
7427;DHT22;3755;59.316;18.092;2023-06-22T13:56:11;25.70;96.70
7427;DHT22;3755;59.316;18.092;2023-06-22T13:58:38;25.80;96.40
7427;DHT22;3755;59.316;18.092;2023-06-22T14:01:05;25.90;96.40
7427;DHT22;3755;59.316;18.092;2023-06-22T14:03:34;26.00;96.10
7427;DHT22;3755;59.316;18.092;2023-06-22T14:06:01;25.60;96.20
7427;DHT22;3755;59.316;18.092;2023-06-22T14:08:29;25.50;96.60
7427;DHT22;3755;59.316;18.092;2023-06-22T14:10:56;25.40;96.70
7427;DHT22;3755;59.316;18.092;2023-06-22T14:13:24;25.60;96.60
7427;DHT22;3755;59.316;18.092;2023-06-22T14:15:51;25.60;96.50
7427;DHT22;3755;59.316;18.092;2023-06-22T14:18:19;25.70;96.50
7427;DHT22;3755;59.316;18.092;2023-06-22T14:20:49;25.50;96.40
7427;DHT22;3755;59.316;18.092;2023-06-22T14:23:16;25.60;96.40
7427;DHT22;3755;59.316;18.092;2023-06-22T14:25:43;25.60;96.50
7427;DHT22;3755;59.316;18.092;2023-06-22T14:28:10;25.80;96.40
7427;DHT22;3755;59.316;18.092;2023-06-22T14:30:38;25.90;96.30
7427;DHT22;3755;59.316;18.092;2023-06-22T14:33:05;25.70;96.40
7427;DHT22;3755;59.316;18.092;2023-06-22T14:35:32;25.90;96.20
7427;DHT22;3755;59.316;18.092;2023-06-22T14:38:00;26.10;96.00
7427;DHT22;3755;59.316;18.092;2023-06-22T14:40:27;26.30;95.70
7427;DHT22;3755;59.316;18.092;2023-06-22T14:42:55;26.10;95.80
7427;DHT22;3755;59.316;18.092;2023-06-22T14:45:22;25.90;95.90
7427;DHT22;3755;59.316;18.092;2023-06-22T14:47:49;25.90;96.00
7427;DHT22;3755;59.316;18.092;2023-06-22T14:50:17;25.70;95.70
7427;DHT22;3755;59.316;18.092;2023-06-22T14:52:44;25.80;95.90
7427;DHT22;3755;59.316;18.092;2023-06-22T14:55:12;26.00;95.80
7427;DHT22;3755;59.316;18.092;2023-06-22T14:57:39;26.10;95.50
7427;DHT22;3755;59.316;18.092;2023-06-22T15:00:07;25.90;95.50
7427;DHT22;3755;59.316;18.092;2023-06-22T15:02:35;25.50;95.40
7427;DHT22;3755;59.316;18.092;2023-06-22T15:05:02;25.40;95.60
7427;DHT22;3755;59.316;18.092;2023-06-22T15:07:30;25.60;95.50
7427;DHT22;3755;59.316;18.092;2023-06-22T15:09:57;25.70;95.60
7427;DHT22;3755;59.316;18.092;2023-06-22T15:12:25;25.80;95.40
7427;DHT22;3755;59.316;18.092;2023-06-22T15:14:53;25.80;95.30
7427;DHT22;3755;59.316;18.092;2023-06-22T15:17:20;25.80;95.20
7427;DHT22;3755;59.316;18.092;2023-06-22T15:19:47;25.80;95.20
7427;DHT22;3755;59.316;18.092;2023-06-22T15:22:14;25.80;95.30
7427;DHT22;3755;59.316;18.092;2023-06-22T15:24:44;26.00;95.10
7427;DHT22;3755;59.316;18.092;2023-06-22T15:27:16;26.00;95.10
7427;DHT22;3755;59.316;18.092;2023-06-22T15:30:05;26.10;95.00
7427;DHT22;3755;59.316;18.092;2023-06-22T15:32:32;25.90;95.00
7427;DHT22;3755;59.316;18.092;2023-06-22T15:35:00;25.70;94.80
7427;DHT22;3755;59.316;18.092;2023-06-22T15:37:28;25.60;95.10
7427;DHT22;3755;59.316;18.092;2023-06-22T15:39:55;25.70;94.90
7427;DHT22;3755;59.316;18.092;2023-06-22T15:42:24;25.90;94.80
7427;DHT22;3755;59.316;18.092;2023-06-22T15:44:51;25.90;94.70
7427;DHT22;3755;59.316;18.092;2023-06-22T15:47:20;26.00;94.50
7427;DHT22;3755;59.316;18.092;2023-06-22T15:49:49;26.20;94.40